Time;durP1;ratioP1;P1;durP2;ratioP2;P2;SDS_P1;SDS_P2;PMS_P1;PMS_P2;Temp;Humidity;BMP_temperature;BMP_pressure;BME280_temperature;BME280_humidity;BME280_pressure;Samples;Min_cycle;Max_cycle;Signal;HPM_P1;HPM_P2
2021/12/19 00:01:20;;;;;;;29.67;14.55;;;3.90;74.00;;;;;;5117441;27;20380;-72
2021/12/19 00:09:01;;;;;;;31.08;12.93;;;3.90;74.10;;;;;;5136719;27;20030;-72
2021/12/19 00:11:27;;;;;;;25.20;12.85;;;3.90;74.10;;;;;;5134998;27;20027;-72
2021/12/19 00:13:53;;;;;;;26.05;13.30;;;4.10;74.10;;;;;;5133485;27;20019;-72
2021/12/19 00:16:19;;;;;;;32.65;13.60;;;3.80;73.90;;;;;;5134436;27;20079;-72
2021/12/19 00:18:47;;;;;;;29.92;14.32;;;3.80;74.20;;;;;;5131754;27;20094;-72
2021/12/19 00:21:15;;;;;;;27.67;13.05;;;3.80;74.30;;;;;;5115618;28;20024;-72
2021/12/19 00:23:42;;;;;;;31.50;13.98;;;3.80;74.40;;;;;;5132194;27;20114;-72
2021/12/19 00:26:08;;;;;;;29.15;13.88;;;3.80;74.30;;;;;;5135820;27;20390;-72
2021/12/19 00:28:34;;;;;;;33.67;13.65;;;3.70;74.30;;;;;;5134308;27;20581;-71
2021/12/19 00:31:00;;;;;;;28.10;13.52;;;3.70;74.30;;;;;;5128750;27;20107;-72
2021/12/19 00:33:26;;;;;;;25.33;12.55;;;3.70;74.10;;;;;;5134776;27;20023;-71
2021/12/19 00:35:52;;;;;;;24.73;12.77;;;3.80;74.30;;;;;;5134996;27;20475;-72
2021/12/19 00:38:18;;;;;;;25.85;11.77;;;3.60;74.00;;;;;;5135362;27;20471;-73
2021/12/19 00:40:44;;;;;;;22.42;11.05;;;3.60;74.00;;;;;;5134731;27;20068;-72
2021/12/19 00:43:21;;;;;;;22.52;10.88;;;3.60;74.40;;;;;;5134455;27;20042;-72
2021/12/19 00:45:49;;;;;;;23.75;10.82;;;3.60;74.60;;;;;;5135192;27;20125;-72
2021/12/19 00:48:16;;;;;;;22.88;11.10;;;3.60;74.70;;;;;;5134485;27;20027;-72
2021/12/19 00:50:42;;;;;;;21.90;11.35;;;3.60;74.80;;;;;;5135632;27;20547;-73
2021/12/19 00:53:08;;;;;;;22.70;11.65;;;3.60;75.00;;;;;;5132823;27;20117;-72
2021/12/19 00:55:34;;;;;;;20.58;10.77;;;3.60;75.00;;;;;;5134434;27;20023;-73
2021/12/19 00:58:00;;;;;;;22.17;11.35;;;3.60;75.00;;;;;;5135569;27;20038;-72
2021/12/19 01:00:28;;;;;;;15.95;8.95;;;3.70;75.10;;;;;;5105581;27;20027;-72
2021/12/19 01:02:58;;;;;;;20.58;10.77;;;3.90;74.90;;;;;;5135082;27;20459;-72
2021/12/19 01:05:28;;;;;;;17.13;9.68;;;3.70;74.70;;;;;;5111932;27;20036;-72
2021/12/19 01:07:54;;;;;;;18.17;9.30;;;3.70;74.50;;;;;;5133193;27;20019;-72
2021/12/19 01:10:21;;;;;;;17.30;9.80;;;3.70;74.40;;;;;;5133859;27;20027;-72
2021/12/19 01:12:46;;;;;;;20.50;9.52;;;4.00;74.60;;;;;;5135086;27;20023;-72
2021/12/19 01:15:14;;;;;;;16.27;9.10;;;3.60;74.40;;;;;;5132995;27;20031;-72
2021/12/19 01:17:41;;;;;;;18.17;9.98;;;3.60;74.20;;;;;;5134898;27;20027;-72
2021/12/19 01:20:12;;;;;;;17.98;9.93;;;3.60;74.20;;;;;;5133371;27;20111;-71
2021/12/19 01:22:38;;;;;;;15.73;8.98;;;3.60;74.30;;;;;;5135147;27;20030;-72
2021/12/19 01:25:04;;;;;;;17.98;9.38;;;3.60;74.20;;;;;;5134234;27;20457;-72
2021/12/19 01:27:29;;;;;;;17.85;9.32;;;3.50;74.30;;;;;;5130905;27;20037;-72
2021/12/19 01:29:55;;;;;;;19.10;9.57;;;3.50;74.40;;;;;;5133261;27;20121;-71
2021/12/19 01:32:21;;;;;;;15.77;8.15;;;3.60;74.50;;;;;;5134407;27;20058;-72
2021/12/19 01:34:46;;;;;;;15.88;8.45;;;3.50;74.50;;;;;;5117557;27;20092;-72
2021/12/19 01:37:13;;;;;;;15.50;8.15;;;3.70;74.50;;;;;;5134304;27;20531;-72
2021/12/19 01:39:39;;;;;;;16.35;8.95;;;3.60;74.40;;;;;;5127074;27;20027;-72
2021/12/19 01:42:10;;;;;;;15.57;8.35;;;3.50;74.50;;;;;;5117061;27;20023;-71
2021/12/19 01:44:36;;;;;;;16.98;8.45;;;3.50;74.30;;;;;;5127980;27;20398;-72
2021/12/19 01:47:02;;;;;;;15.30;8.88;;;3.50;74.40;;;;;;5134253;27;20031;-72
2021/12/19 01:49:28;;;;;;;16.05;9.20;;;3.50;74.40;;;;;;5132340;27;20027;-72
2021/12/19 01:51:54;;;;;;;14.75;8.00;;;3.50;74.40;;;;;;5130808;27;20112;-71
2021/12/19 01:54:20;;;;;;;15.05;8.18;;;3.50;74.50;;;;;;5118196;27;20103;-72
2021/12/19 01:56:45;;;;;;;13.70;7.80;;;3.50;74.30;;;;;;5124175;27;20055;-72
2021/12/19 01:59:12;;;;;;;15.05;8.20;;;3.40;74.20;;;;;;5118257;27;20501;-72
2021/12/19 02:01:46;;;;;;;15.75;8.57;;;3.40;74.20;;;;;;5127898;27;20020;-71
2021/12/19 02:04:15;;;;;;;16.15;8.43;;;3.40;74.20;;;;;;5130296;27;20131;-71
2021/12/19 02:06:41;;;;;;;19.58;8.82;;;3.40;74.30;;;;;;5131400;27;20446;-71
2021/12/19 02:09:08;;;;;;;16.52;9.23;;;3.40;74.30;;;;;;5133085;27;20101;-71
2021/12/19 02:11:34;;;;;;;16.42;9.00;;;3.40;74.50;;;;;;5114874;27;20497;-72
2021/12/19 02:14:02;;;;;;;17.60;8.60;;;3.40;74.70;;;;;;5115880;27;20126;-72
2021/12/19 02:16:28;;;;;;;16.88;8.43;;;3.40;75.40;;;;;;5132764;27;20491;-72
2021/12/19 02:18:55;;;;;;;15.63;8.40;;;3.40;74.60;;;;;;5128104;27;20039;-72
2021/12/19 02:21:20;;;;;;;17.85;8.95;;;3.40;74.40;;;;;;5130976;27;20027;-72
2021/12/19 02:23:46;;;;;;;16.55;8.90;;;3.40;74.40;;;;;;5127135;27;20779;-72
2021/12/19 02:26:13;;;;;;;16.08;8.85;;;3.40;74.50;;;;;;5131939;27;20035;-71
2021/12/19 02:28:39;;;;;;;13.57;8.27;;;3.40;74.60;;;;;;5133340;27;20092;-71
2021/12/19 02:31:05;;;;;;;14.65;8.40;;;3.60;74.80;;;;;;5132418;27;20023;-72
2021/12/19 02:33:35;;;;;;;16.13;8.45;;;3.70;74.60;;;;;;5114638;27;20019;-72
2021/12/19 02:36:18;;;;;;;15.23;8.25;;;3.40;74.50;;;;;;5127392;27;20031;-72
2021/12/19 02:49:27;;;;;;;14.73;7.85;;;3.50;74.70;;;;;;5120807;28;20104;-72
2021/12/19 02:51:55;;;;;;;13.05;7.65;;;3.50;74.60;;;;;;5124707;28;20051;-72
2021/12/19 02:54:22;;;;;;;14.40;8.18;;;3.50;74.60;;;;;;5124198;27;20505;-72
2021/12/19 02:56:49;;;;;;;14.95;8.15;;;3.50;74.60;;;;;;5137789;27;20019;-72
2021/12/19 02:59:15;;;;;;;16.25;9.07;;;3.60;74.60;;;;;;5136929;27;20050;-72
2021/12/19 03:01:43;;;;;;;15.27;8.45;;;3.60;74.50;;;;;;5137059;27;20030;-72
2021/12/19 03:04:09;;;;;;;16.10;8.60;;;3.60;74.50;;;;;;5129940;27;20110;-71
2021/12/19 03:06:35;;;;;;;15.02;8.43;;;3.80;74.40;;;;;;5118204;27;20126;-71
2021/12/19 03:09:06;;;;;;;15.20;8.90;;;3.60;74.20;;;;;;5119257;27;20027;-72
2021/12/19 03:19:44;;;;;;;14.75;7.65;;;3.50;74.20;;;;;;5122637;27;20035;-72
2021/12/19 03:22:10;;;;;;;13.23;7.38;;;3.60;74.40;;;;;;5132564;27;20399;-71
2021/12/19 03:24:35;;;;;;;14.38;7.47;;;3.80;74.60;;;;;;5121449;27;20019;-73
2021/12/19 03:27:01;;;;;;;13.90;8.02;;;3.50;74.50;;;;;;5134861;27;20042;-72
2021/12/19 03:29:27;;;;;;;11.82;7.35;;;3.60;74.50;;;;;;5118428;27;20043;-71
2021/12/19 03:31:52;;;;;;;14.02;7.60;;;3.60;74.60;;;;;;5135922;27;20106;-72
2021/12/19 03:34:18;;;;;;;12.98;7.25;;;3.60;74.70;;;;;;5135761;27;20023;-72
2021/12/19 03:36:45;;;;;;;12.57;7.75;;;3.80;74.90;;;;;;5135779;27;20027;-72
2021/12/19 03:39:25;;;;;;;13.98;8.25;;;3.80;75.00;;;;;;5135121;27;20054;-72
2021/12/19 03:41:51;;;;;;;14.75;8.40;;;3.70;75.50;;;;;;5136873;27;20387;-72
2021/12/19 03:44:18;;;;;;;14.10;8.13;;;3.70;74.70;;;;;;5118011;27;20027;-72
2021/12/19 03:46:43;;;;;;;13.27;8.02;;;3.80;74.60;;;;;;5136981;27;20038;-72
2021/12/19 03:49:10;;;;;;;12.95;7.90;;;3.80;74.40;;;;;;5120285;27;20027;-72
2021/12/19 03:51:36;;;;;;;13.85;7.78;;;3.80;74.30;;;;;;5115177;27;20114;-72
2021/12/19 03:54:02;;;;;;;11.55;6.72;;;3.80;74.20;;;;;;5118168;27;20118;-72
2021/12/19 03:56:27;;;;;;;12.02;7.18;;;3.80;74.10;;;;;;5125278;27;20035;-72
2021/12/19 03:58:54;;;;;;;12.77;6.53;;;3.70;73.90;;;;;;5135307;27;20050;-72
2021/12/19 04:01:20;;;;;;;11.60;6.50;;;3.70;73.90;;;;;;5134824;27;20476;-73
2021/12/19 04:03:47;;;;;;;11.27;6.32;;;3.70;74.00;;;;;;5121284;27;20034;-72
2021/12/19 04:06:12;;;;;;;12.85;7.45;;;3.90;74.90;;;;;;5134481;27;20031;-72
2021/12/19 04:08:38;;;;;;;10.10;6.10;;;3.70;73.90;;;;;;5117213;27;20034;-72
2021/12/19 04:11:04;;;;;;;8.73;5.85;;;3.60;73.70;;;;;;5117285;27;20422;-72
2021/12/19 04:13:29;;;;;;;10.98;6.25;;;3.60;73.80;;;;;;5133911;27;20027;-72
2021/12/19 04:15:55;;;;;;;9.60;5.88;;;3.50;73.70;;;;;;5135387;27;20039;-72
2021/12/19 04:18:21;;;;;;;9.30;5.82;;;3.50;73.70;;;;;;5136003;27;20157;-72
2021/12/19 04:20:47;;;;;;;10.55;5.55;;;3.50;73.70;;;;;;5135188;27;20059;-72
2021/12/19 04:23:13;;;;;;;9.57;5.43;;;3.40;73.80;;;;;;5119948;27;20015;-72
2021/12/19 04:25:39;;;;;;;9.73;5.97;;;3.40;73.80;;;;;;5134844;27;20487;-72
2021/12/19 04:28:05;;;;;;;10.57;6.53;;;3.40;74.00;;;;;;5134225;27;20043;-72
2021/12/19 04:30:31;;;;;;;12.43;7.15;;;3.40;74.20;;;;;;5135498;27;20030;-72
2021/12/19 04:33:03;;;;;;;14.23;7.63;;;3.30;74.30;;;;;;5134932;27;20023;-72
2021/12/19 04:35:32;;;;;;;21.48;10.45;;;3.40;74.50;;;;;;5132523;27;20023;-72
2021/12/19 04:40:44;;;;;;;15.68;8.32;;;3.40;74.30;;;;;;5126892;27;20027;-71
2021/12/19 04:51:45;;;;;;;17.10;8.02;;;3.40;74.40;;;;;;5134912;27;20045;-71
2021/12/19 05:01:56;;;;;;;14.27;8.05;;;3.40;74.70;;;;;;5134160;27;20142;-72
2021/12/19 05:15:27;;;;;;;15.70;8.30;;;3.40;74.80;;;;;;5115878;27;20127;-72
2021/12/19 05:18:00;;;;;;;13.68;7.80;;;3.50;74.80;;;;;;5133426;27;20035;-72
2021/12/19 05:20:28;;;;;;;18.15;8.75;;;3.50;74.90;;;;;;5115880;27;20019;-72
2021/12/19 05:23:01;;;;;;;17.73;8.70;;;3.50;74.90;;;;;;5134577;27;20106;-72
2021/12/19 05:25:27;;;;;;;16.92;8.55;;;3.50;75.10;;;;;;5131524;27;20035;-72
2021/12/19 05:27:56;;;;;;;16.20;8.82;;;3.50;75.00;;;;;;5132212;27;20494;-71
2021/12/19 05:30:24;;;;;;;14.88;8.50;;;3.60;75.00;;;;;;5131406;27;20034;-72
2021/12/19 05:32:51;;;;;;;14.45;8.40;;;3.60;74.90;;;;;;5127126;27;20020;-72
2021/12/19 05:35:25;;;;;;;14.50;8.02;;;3.60;74.80;;;;;;5109747;27;20023;-71
2021/12/19 05:46:03;;;;;;;15.30;8.18;;;3.60;74.60;;;;;;5134584;27;20065;-72
2021/12/19 05:48:29;;;;;;;15.07;7.78;;;3.60;74.50;;;;;;5108978;27;20472;-72
2021/12/19 05:50:55;;;;;;;14.98;7.55;;;3.70;74.50;;;;;;5108105;27;20046;-72
2021/12/19 05:53:20;;;;;;;17.27;8.10;;;3.60;74.40;;;;;;5115999;27;20023;-72
2021/12/19 05:55:46;;;;;;;13.98;7.68;;;3.60;74.50;;;;;;5133138;27;20387;-72
2021/12/19 05:58:12;;;;;;;15.15;7.57;;;3.50;74.60;;;;;;5131295;27;20217;-71
2021/12/19 06:00:38;;;;;;;14.32;7.45;;;3.50;74.70;;;;;;5115349;27;20394;-71
2021/12/19 06:03:04;;;;;;;15.23;8.07;;;3.50;74.90;;;;;;5132944;27;20029;-72
2021/12/19 06:05:30;;;;;;;14.38;7.90;;;3.50;74.60;;;;;;5118524;27;20027;-72
2021/12/19 06:07:55;;;;;;;15.80;8.02;;;3.60;74.80;;;;;;5114970;27;20027;-72
2021/12/19 06:10:22;;;;;;;12.35;6.70;;;3.50;74.80;;;;;;5132869;27;20035;-73
2021/12/19 06:12:48;;;;;;;16.08;8.05;;;3.70;74.80;;;;;;5134058;27;20019;-72
2021/12/19 06:15:14;;;;;;;15.15;6.97;;;3.60;74.80;;;;;;5132847;27;20510;-72
2021/12/19 06:17:44;;;;;;;15.23;7.50;;;3.60;75.00;;;;;;5133938;27;20015;-72
2021/12/19 06:20:10;;;;;;;15.43;7.65;;;3.60;75.00;;;;;;5132531;27;20023;-72
2021/12/19 06:22:37;;;;;;;12.90;7.10;;;3.60;74.80;;;;;;5133602;27;20027;-72
2021/12/19 06:25:04;;;;;;;13.13;7.53;;;3.60;74.80;;;;;;5128373;27;20042;-72
2021/12/19 06:27:30;;;;;;;16.20;8.68;;;3.60;75.00;;;;;;5133393;27;20027;-72
2021/12/19 06:29:55;;;;;;;15.20;7.85;;;3.60;75.70;;;;;;5132023;27;20100;-73
2021/12/19 06:32:21;;;;;;;17.17;8.13;;;3.70;75.10;;;;;;5096365;28;20024;-72
2021/12/19 06:34:47;;;;;;;15.50;7.07;;;3.90;74.80;;;;;;5129108;27;20023;-72
2021/12/19 06:37:13;;;;;;;14.55;7.25;;;3.70;74.70;;;;;;5116600;27;20114;-72
2021/12/19 06:39:39;;;;;;;13.80;7.00;;;3.70;74.70;;;;;;5132441;27;20031;-72
2021/12/19 06:42:07;;;;;;;14.88;7.22;;;3.70;74.50;;;;;;5133769;27;20019;-73
2021/12/19 06:44:34;;;;;;;22.27;6.97;;;3.70;74.60;;;;;;5125749;27;20023;-73
2021/12/19 06:47:00;;;;;;;12.73;6.72;;;3.70;74.70;;;;;;5117671;28;20031;-72
2021/12/19 06:49:26;;;;;;;15.90;6.85;;;3.70;74.80;;;;;;5115375;28;20026;-72
2021/12/19 06:51:52;;;;;;;13.65;6.50;;;3.60;74.90;;;;;;5132645;28;20034;-73
2021/12/19 06:54:18;;;;;;;12.13;6.70;;;3.60;74.80;;;;;;5132972;28;20015;-73
2021/12/19 06:56:43;;;;;;;11.93;6.15;;;3.70;74.90;;;;;;5128123;28;20027;-72
2021/12/19 06:59:09;;;;;;;14.52;6.68;;;3.60;74.80;;;;;;5122385;28;20110;-72
2021/12/19 07:01:38;;;;;;;13.35;6.47;;;3.60;74.80;;;;;;5132669;28;20026;-73
2021/12/19 07:04:05;;;;;;;12.68;6.45;;;3.70;74.70;;;;;;5115454;28;20031;-73
2021/12/19 07:06:31;;;;;;;12.82;6.43;;;3.60;74.70;;;;;;5133208;28;20042;-73
2021/12/19 07:08:56;;;;;;;11.52;6.15;;;3.60;74.90;;;;;;5132075;28;20106;-73
2021/12/19 07:11:22;;;;;;;12.32;6.22;;;3.60;75.00;;;;;;5132980;28;20027;-73
2021/12/19 07:13:48;;;;;;;11.77;6.45;;;3.60;75.00;;;;;;5132026;27;20034;-72
2021/12/19 07:16:14;;;;;;;15.45;6.93;;;3.70;75.00;;;;;;5130730;28;20431;-72
2021/12/19 07:18:39;;;;;;;13.10;6.43;;;3.70;75.00;;;;;;5132629;28;20348;-72
2021/12/19 07:21:07;;;;;;;12.80;6.20;;;3.70;74.70;;;;;;5132285;28;20038;-72
2021/12/19 07:23:33;;;;;;;12.57;6.32;;;3.70;74.80;;;;;;5132531;28;20471;-72
2021/12/19 07:25:59;;;;;;;12.55;6.32;;;3.70;74.80;;;;;;5131874;28;20130;-73
2021/12/19 07:28:25;;;;;;;11.00;6.05;;;3.70;74.80;;;;;;5131895;27;20040;-74
2021/12/19 07:30:50;;;;;;;13.77;6.65;;;3.70;74.90;;;;;;5131356;28;20031;-73
2021/12/19 07:33:18;;;;;;;13.90;6.50;;;3.70;74.90;;;;;;5113983;28;20024;-73
2021/12/19 07:35:47;;;;;;;15.05;7.47;;;3.70;74.90;;;;;;5123805;28;20094;-72
2021/12/19 07:38:19;;;;;;;15.10;7.35;;;3.80;75.10;;;;;;5115920;28;20028;-72
2021/12/19 07:40:47;;;;;;;15.10;6.85;;;3.80;75.10;;;;;;5132426;27;20027;-73
2021/12/19 07:43:13;;;;;;;13.50;6.75;;;3.80;75.10;;;;;;5132829;27;20033;-73
2021/12/19 07:45:39;;;;;;;14.93;7.47;;;3.80;74.80;;;;;;5135659;27;20070;-72
2021/12/19 07:48:05;;;;;;;12.63;6.13;;;3.80;74.60;;;;;;5134106;27;20471;-73
2021/12/19 07:50:31;;;;;;;16.55;6.75;;;3.80;74.60;;;;;;5121280;27;20026;-73
2021/12/19 07:52:57;;;;;;;20.15;9.00;;;3.80;74.50;;;;;;5117276;27;20026;-73
2021/12/19 07:55:24;;;;;;;12.95;7.00;;;3.80;74.60;;;;;;5116260;28;20036;-73
2021/12/19 07:57:51;;;;;;;14.25;6.70;;;3.80;74.80;;;;;;5116294;28;20024;-73
2021/12/19 08:00:19;;;;;;;13.48;6.30;;;3.80;74.70;;;;;;5116730;27;20473;-74
2021/12/19 08:02:47;;;;;;;14.52;6.63;;;3.80;74.70;;;;;;5136444;27;20505;-73
2021/12/19 08:05:15;;;;;;;15.45;6.35;;;3.80;74.60;;;;;;5134643;27;20038;-73
2021/12/19 08:07:42;;;;;;;13.25;6.68;;;3.80;74.60;;;;;;5120127;27;20019;-72
2021/12/19 08:12:44;;;;;;;15.35;7.32;;;3.80;74.70;;;;;;5115972;28;20384;-73
2021/12/19 08:15:11;;;;;;;14.40;7.00;;;3.90;74.90;;;;;;5118052;27;20417;-73
2021/12/19 08:17:38;;;;;;;16.88;8.15;;;3.90;74.90;;;;;;5136127;27;20103;-73
2021/12/19 08:20:06;;;;;;;17.25;8.30;;;3.90;74.90;;;;;;5117642;27;20045;-72
2021/12/19 08:22:33;;;;;;;23.70;10.88;;;4.00;75.00;;;;;;5117314;27;20486;-73
2021/12/19 08:24:59;;;;;;;20.75;8.80;;;4.00;74.90;;;;;;5107665;27;20035;-72
2021/12/19 08:27:26;;;;;;;19.60;8.77;;;4.00;74.70;;;;;;5124361;27;20019;-73
2021/12/19 08:29:53;;;;;;;20.45;8.02;;;4.10;74.70;;;;;;5135525;27;20107;-73
2021/12/19 08:32:19;;;;;;;14.43;7.53;;;4.10;74.60;;;;;;5136119;27;20023;-73
2021/12/19 08:34:45;;;;;;;16.33;8.20;;;4.10;74.50;;;;;;5135529;27;20024;-73
2021/12/19 08:37:11;;;;;;;16.67;7.10;;;4.10;74.30;;;;;;5135187;27;20474;-77
2021/12/19 08:39:38;;;;;;;16.30;8.52;;;4.20;74.20;;;;;;5130415;27;20019;-76
2021/12/19 08:42:06;;;;;;;13.65;7.00;;;4.10;74.20;;;;;;5122799;27;20012;-76
2021/12/19 08:44:32;;;;;;;14.05;7.50;;;4.10;74.30;;;;;;5135411;27;20030;-77
2021/12/19 08:46:58;;;;;;;16.15;8.13;;;4.10;74.30;;;;;;5116359;27;20691;-76
2021/12/19 08:49:24;;;;;;;16.00;7.70;;;4.10;74.10;;;;;;5128866;27;20486;-77
2021/12/19 08:51:50;;;;;;;16.63;8.27;;;4.10;74.30;;;;;;5139035;27;20034;-77
2021/12/19 08:54:16;;;;;;;16.00;7.70;;;4.00;74.20;;;;;;5103068;27;20019;-77
2021/12/19 08:56:41;;;;;;;19.27;9.48;;;4.10;74.00;;;;;;5135683;27;20031;-76
2021/12/19 08:59:09;;;;;;;15.48;7.50;;;4.10;74.00;;;;;;5134652;27;20483;-77
2021/12/19 09:01:36;;;;;;;14.45;7.22;;;4.00;73.90;;;;;;5124803;27;20091;-76
2021/12/19 09:04:01;;;;;;;13.70;7.45;;;4.00;73.90;;;;;;5133943;27;20023;-77
2021/12/19 09:06:27;;;;;;;13.38;7.10;;;3.90;74.00;;;;;;5128662;27;20525;-76
2021/12/19 09:08:53;;;;;;;15.07;6.82;;;3.90;74.20;;;;;;5114605;28;20030;-76
2021/12/19 09:11:19;;;;;;;14.00;7.13;;;3.90;74.40;;;;;;5108673;27;20027;-76
2021/12/19 09:13:45;;;;;;;16.35;7.90;;;3.90;74.50;;;;;;5113942;27;20054;-77
2021/12/19 09:16:11;;;;;;;15.63;7.93;;;4.00;74.80;;;;;;5129241;27;20050;-77
2021/12/19 09:18:37;;;;;;;16.52;8.52;;;4.00;74.70;;;;;;5132809;27;20027;-77
2021/12/19 09:21:03;;;;;;;15.60;7.90;;;4.10;74.70;;;;;;5104228;27;20483;-76
2021/12/19 09:23:29;;;;;;;19.10;10.45;;;4.10;74.50;;;;;;5133146;27;20057;-76
2021/12/19 09:25:55;;;;;;;17.58;8.68;;;4.10;74.60;;;;;;5122407;27;20445;-76
2021/12/19 09:28:21;;;;;;;18.15;9.85;;;4.20;74.70;;;;;;5116118;27;20084;-77
2021/12/19 09:30:46;;;;;;;14.13;7.75;;;4.20;74.60;;;;;;5116602;27;20467;-77
2021/12/19 09:33:12;;;;;;;14.90;7.88;;;4.30;74.80;;;;;;5117314;27;20026;-77
2021/12/19 09:35:38;;;;;;;16.52;8.50;;;4.30;74.60;;;;;;5134324;27;20023;-76
2021/12/19 09:38:05;;;;;;;17.50;7.68;;;4.40;74.30;;;;;;5134529;27;20084;-76
2021/12/19 09:40:34;;;;;;;14.65;6.97;;;4.40;74.10;;;;;;5120196;27;20050;-76
2021/12/19 09:45:59;;;;;;;12.95;6.80;;;4.40;73.70;;;;;;5132835;27;20419;-76
2021/12/19 09:48:26;;;;;;;17.38;7.57;;;4.40;73.60;;;;;;5134318;27;20015;-76
2021/12/19 09:50:53;;;;;;;14.70;7.50;;;4.40;73.60;;;;;;5117350;27;20138;-76
2021/12/19 09:53:19;;;;;;;15.05;7.90;;;4.40;73.80;;;;;;5134333;27;20059;-77
2021/12/19 09:55:45;;;;;;;18.73;7.82;;;4.40;73.90;;;;;;5128533;27;20403;-77
2021/12/19 09:58:11;;;;;;;14.27;7.07;;;4.30;73.80;;;;;;5110687;27;20026;-77
2021/12/19 10:00:37;;;;;;;14.68;7.40;;;4.30;73.90;;;;;;5130739;27;20024;-76
2021/12/19 10:03:03;;;;;;;16.77;7.40;;;4.30;74.00;;;;;;5132930;27;20027;-76
2021/12/19 10:05:28;;;;;;;15.75;7.28;;;4.30;74.10;;;;;;5131243;27;20031;-76
2021/12/19 10:07:57;;;;;;;12.50;7.10;;;4.40;74.20;;;;;;5134204;27;20479;-76
2021/12/19 10:10:45;;;;;;;18.00;8.57;;;4.40;74.10;;;;;;5115643;27;20396;-76
2021/12/19 10:13:11;;;;;;;13.60;7.20;;;4.40;74.20;;;;;;5133835;27;20402;-76
2021/12/19 10:15:41;;;;;;;35.25;13.32;;;4.40;73.90;;;;;;5115167;27;20034;-76
2021/12/19 10:18:08;;;;;;;16.33;8.30;;;4.40;73.90;;;;;;5127039;27;20037;-76
2021/12/19 10:20:45;;;;;;;14.60;7.30;;;4.40;74.00;;;;;;5115650;27;20022;-77
2021/12/19 10:23:23;;;;;;;14.43;6.93;;;4.40;74.00;;;;;;5108525;27;20024;-76
2021/12/19 10:26:01;;;;;;;11.80;6.40;;;4.40;73.50;;;;;;5114910;27;20129;-77
2021/12/19 10:28:29;;;;;;;10.52;5.97;;;4.40;73.50;;;;;;5110836;28;20047;-76
2021/12/19 10:30:56;;;;;;;13.90;6.80;;;4.40;73.50;;;;;;5110921;28;20422;-76
2021/12/19 10:33:26;;;;;;;9.60;5.40;;;4.30;73.30;;;;;;5112862;28;20024;-76
2021/12/19 10:36:00;;;;;;;12.18;6.53;;;4.30;73.30;;;;;;5112747;28;20042;-76
2021/12/19 10:38:32;;;;;;;11.43;6.13;;;4.20;73.30;;;;;;5108458;28;20032;-76
2021/12/19 10:41:01;;;;;;;11.00;5.88;;;4.20;73.50;;;;;;5109853;27;20074;-76
2021/12/19 10:43:31;;;;;;;12.88;6.22;;;4.20;73.40;;;;;;5104653;28;20035;-77
2021/12/19 10:46:03;;;;;;;12.00;5.80;;;4.20;73.60;;;;;;5112635;28;20483;-76
2021/12/19 10:48:43;;;;;;;13.38;6.53;;;4.10;73.50;;;;;;5111698;28;20537;-76
2021/12/19 10:51:12;;;;;;;10.43;5.53;;;4.30;73.70;;;;;;5112870;28;20035;-76
2021/12/19 10:53:42;;;;;;;13.18;7.30;;;4.10;73.80;;;;;;5112917;28;20058;-76
2021/12/19 10:56:13;;;;;;;12.52;5.95;;;4.10;74.20;;;;;;5111050;28;20139;-76
2021/12/19 10:58:53;;;;;;;9.68;5.55;;;4.10;74.30;;;;;;5109425;28;20028;-77
2021/12/19 11:01:28;;;;;;;11.35;5.53;;;4.20;74.30;;;;;;5109515;28;20082;-76
2021/12/19 11:04:07;;;;;;;7.60;4.60;;;4.20;74.10;;;;;;5111191;28;20027;-76
2021/12/19 11:06:40;;;;;;;9.90;4.90;;;4.20;73.90;;;;;;5111534;28;20421;-76
2021/12/19 11:09:23;;;;;;;9.98;4.50;;;4.20;73.90;;;;;;5108971;28;20028;-76
2021/12/19 11:11:56;;;;;;;8.43;4.57;;;4.20;73.90;;;;;;5111532;28;20028;-76
2021/12/19 11:14:29;;;;;;;9.13;4.18;;;4.20;73.80;;;;;;5111948;28;20098;-77
2021/12/19 11:16:58;;;;;;;7.72;4.60;;;4.20;73.80;;;;;;5115354;28;20104;-76
2021/12/19 11:19:25;;;;;;;11.93;5.07;;;4.50;73.90;;;;;;5107276;28;20682;-76
2021/12/19 11:21:51;;;;;;;10.90;5.47;;;4.20;73.80;;;;;;5112285;28;20103;-76
2021/12/19 11:24:19;;;;;;;9.23;5.18;;;4.20;73.80;;;;;;5115665;28;20072;-76
2021/12/19 11:26:46;;;;;;;9.73;5.15;;;4.20;74.00;;;;;;5114288;28;20050;-77
2021/12/19 11:29:13;;;;;;;8.48;4.68;;;4.20;73.90;;;;;;5128290;27;20040;-76
2021/12/19 11:31:41;;;;;;;7.88;4.43;;;4.30;73.90;;;;;;5136541;27;20508;-76
2021/12/19 11:34:21;;;;;;;9.88;5.20;;;4.40;73.90;;;;;;5135205;27;20125;-76
2021/12/19 11:36:54;;;;;;;9.15;4.90;;;4.30;74.00;;;;;;5125518;27;20027;-76
2021/12/19 11:39:24;;;;;;;9.80;5.30;;;4.30;73.90;;;;;;5140042;27;20484;-76
2021/12/19 11:42:14;;;;;;;7.50;4.40;;;4.30;73.70;;;;;;5139146;27;20526;-76
2021/12/19 11:47:56;;;;;;;10.25;5.22;;;4.30;74.00;;;;;;5136333;27;20046;-75
2021/12/19 11:50:30;;;;;;;5.80;3.85;;;4.30;73.40;;;;;;5116114;27;20035;-76
2021/12/19 11:53:09;;;;;;;29.65;12.23;;;4.30;73.30;;;;;;5134696;27;20034;-76
2021/12/19 11:55:40;;;;;;;8.05;4.53;;;4.20;73.50;;;;;;5125668;27;20027;-76
2021/12/19 11:58:08;;;;;;;8.38;4.40;;;4.20;73.80;;;;;;5129399;27;20498;-77
2021/12/19 12:00:40;;;;;;;7.60;4.47;;;4.30;73.90;;;;;;5135530;27;20390;-76
2021/12/19 12:03:12;;;;;;;8.63;4.47;;;4.30;74.60;;;;;;5135627;27;20027;-76
2021/12/19 12:05:42;;;;;;;8.23;4.70;;;4.30;73.90;;;;;;5117284;27;20035;-76
2021/12/19 12:08:08;;;;;;;7.32;4.40;;;4.30;73.90;;;;;;5131802;27;20562;-76
2021/12/19 12:10:49;;;;;;;9.10;4.47;;;4.30;73.90;;;;;;5135543;27;20420;-76
2021/12/19 12:13:28;;;;;;;6.95;4.15;;;4.40;74.30;;;;;;5134332;27;20382;-76
2021/12/19 12:16:09;;;;;;;6.07;3.92;;;4.50;74.40;;;;;;5133141;27;20027;-76
2021/12/19 12:18:40;;;;;;;7.47;4.10;;;4.50;74.50;;;;;;5134177;27;20019;-76
2021/12/19 12:21:18;;;;;;;7.55;3.95;;;4.60;74.00;;;;;;5130960;27;20030;-76
2021/12/19 12:23:52;;;;;;;4.97;3.15;;;4.60;73.10;;;;;;5134813;27;20019;-76
2021/12/19 12:26:41;;;;;;;5.30;3.58;;;4.60;72.80;;;;;;5135171;27;20451;-76
2021/12/19 12:29:08;;;;;;;6.80;3.28;;;4.50;72.90;;;;;;5117774;27;20046;-77
2021/12/19 12:31:34;;;;;;;13.20;11.02;;;4.50;73.30;;;;;;5116818;27;20566;-76
2021/12/19 12:34:02;;;;;;;8.18;4.07;;;4.50;73.70;;;;;;5134485;27;20046;-76
2021/12/19 12:36:28;;;;;;;7.65;3.90;;;4.50;74.00;;;;;;5127794;27;20011;-76
2021/12/19 12:38:54;;;;;;;9.65;4.75;;;4.60;74.20;;;;;;5123981;27;20031;-76
2021/12/19 12:41:39;;;;;;;6.80;2.97;;;4.70;73.90;;;;;;5135074;27;20348;-76
2021/12/19 12:44:17;;;;;;;8.00;4.05;;;4.70;73.50;;;;;;5115851;27;20066;-75
2021/12/19 12:46:43;;;;;;;8.45;4.40;;;4.80;73.70;;;;;;5117245;27;20031;-75
2021/12/19 12:49:29;;;;;;;8.20;3.85;;;4.80;73.80;;;;;;5134204;27;20020;-75
2021/12/19 12:51:57;;;;;;;5.13;3.30;;;4.90;73.50;;;;;;5132643;27;20905;-76
2021/12/19 12:54:30;;;;;;;5.78;3.50;;;4.90;72.90;;;;;;5128346;27;20031;-76
2021/12/19 12:57:00;;;;;;;6.13;2.60;;;5.00;72.60;;;;;;5132981;27;20023;-76
2021/12/19 12:59:34;;;;;;;9.07;4.20;;;5.00;72.60;;;;;;5115470;27;20428;-77
2021/12/19 13:02:28;;;;;;;5.65;3.42;;;5.00;72.70;;;;;;5131849;27;20399;-77
2021/12/19 13:04:55;;;;;;;3.80;2.63;;;5.20;72.60;;;;;;5134004;27;20019;-77
2021/12/19 13:07:25;;;;;;;4.70;3.03;;;4.90;72.60;;;;;;5114798;27;20039;-77
2021/12/19 13:09:56;;;;;;;4.78;2.85;;;4.90;72.80;;;;;;5134235;27;20023;-77
2021/12/19 13:12:29;;;;;;;4.47;3.10;;;4.90;73.10;;;;;;5132233;27;20429;-77
2021/12/19 13:15:00;;;;;;;5.72;3.30;;;5.00;73.20;;;;;;5113386;27;20026;-76
2021/12/19 13:17:30;;;;;;;8.20;4.15;;;5.00;73.90;;;;;;5112160;27;20446;-77
2021/12/19 13:19:57;;;;;;;6.53;3.85;;;5.00;73.10;;;;;;5134730;27;20027;-77
2021/12/19 13:22:51;;;;;;;8.68;3.92;;;5.00;73.00;;;;;;5119344;27;20030;-76
2021/12/19 13:25:25;;;;;;;4.50;2.90;;;5.00;73.10;;;;;;5116628;27;20058;-77
2021/12/19 13:27:57;;;;;;;6.93;4.20;;;5.00;73.00;;;;;;5118489;27;20027;-76
2021/12/19 13:30:27;;;;;;;7.25;3.22;;;5.00;73.00;;;;;;5112729;27;20035;-77
2021/12/19 13:33:04;;;;;;;8.05;5.65;;;5.10;73.10;;;;;;5116483;27;20072;-75
2021/12/19 13:35:43;;;;;;;6.88;4.10;;;5.10;73.30;;;;;;5121890;27;20047;-76
2021/12/19 13:38:16;;;;;;;15.80;12.27;;;5.10;73.50;;;;;;5112854;27;20478;-76
2021/12/19 13:40:51;;;;;;;9.20;4.55;;;5.10;73.70;;;;;;5134060;27;20023;-76
2021/12/19 13:43:21;;;;;;;;;;;5.20;73.60;;;;;;5136096;27;20062;-77
2021/12/19 13:45:56;;;;;;;4.30;2.80;;;5.30;73.30;;;;;;5119409;27;19915;-74
2021/12/19 13:48:39;;;;;;;3.95;2.65;;;5.50;73.30;;;;;;5118140;27;20019;-76
2021/12/19 13:51:12;;;;;;;4.70;3.28;;;5.30;73.40;;;;;;5106185;27;20043;-74
2021/12/19 13:53:45;;;;;;;6.57;3.88;;;5.30;73.50;;;;;;5106723;27;20019;-74
2021/12/19 13:56:20;;;;;;;5.93;3.30;;;5.30;73.50;;;;;;5130642;27;20031;-75
2021/12/19 13:58:51;;;;;;;4.07;2.60;;;5.40;73.50;;;;;;5105048;27;20476;-73
2021/12/19 14:01:38;;;;;;;4.47;2.83;;;5.40;73.30;;;;;;5116705;27;20093;-74
2021/12/19 14:04:25;;;;;;;6.47;3.08;;;5.40;73.30;;;;;;5120811;27;20016;-74
2021/12/19 14:06:58;;;;;;;5.85;3.65;;;5.50;73.00;;;;;;5112980;27;20401;-75